sensor_id;sensor_type;location;lat;lon;timestamp;P1;durP1;ratioP1;P2;durP2;ratioP2
22131;SDS011;11232;51.748;19.390;2023-03-23T00:01:09;34.57;;;17.47;;
22131;SDS011;11232;51.748;19.390;2023-03-23T00:03:38;39.77;;;18.07;;
22131;SDS011;11232;51.748;19.390;2023-03-23T00:06:04;33.97;;;17.27;;
22131;SDS011;11232;51.748;19.390;2023-03-23T00:08:34;36.17;;;17.90;;
22131;SDS011;11232;51.748;19.390;2023-03-23T00:11:10;34.50;;;18.40;;
22131;SDS011;11232;51.748;19.390;2023-03-23T00:13:39;37.90;;;18.00;;
22131;SDS011;11232;51.748;19.390;2023-03-23T00:16:06;37.57;;;17.77;;
22131;SDS011;11232;51.748;19.390;2023-03-23T00:18:41;36.63;;;18.37;;
22131;SDS011;11232;51.748;19.390;2023-03-23T00:21:17;41.50;;;17.23;;
22131;SDS011;11232;51.748;19.390;2023-03-23T00:23:43;30.97;;;17.37;;
22131;SDS011;11232;51.748;19.390;2023-03-23T00:26:10;35.17;;;17.83;;
22131;SDS011;11232;51.748;19.390;2023-03-23T00:28:36;34.40;;;18.03;;
22131;SDS011;11232;51.748;19.390;2023-03-23T00:31:04;35.47;;;18.43;;
22131;SDS011;11232;51.748;19.390;2023-03-23T00:33:32;35.00;;;17.63;;
22131;SDS011;11232;51.748;19.390;2023-03-23T00:36:03;34.53;;;17.87;;
22131;SDS011;11232;51.748;19.390;2023-03-23T00:38:29;37.50;;;19.30;;
22131;SDS011;11232;51.748;19.390;2023-03-23T00:40:56;35.00;;;17.93;;
22131;SDS011;11232;51.748;19.390;2023-03-23T00:43:22;37.67;;;18.77;;
22131;SDS011;11232;51.748;19.390;2023-03-23T00:45:53;34.20;;;17.77;;
22131;SDS011;11232;51.748;19.390;2023-03-23T00:48:20;38.13;;;17.47;;
22131;SDS011;11232;51.748;19.390;2023-03-23T00:50:46;33.43;;;17.27;;
22131;SDS011;11232;51.748;19.390;2023-03-23T00:53:12;31.33;;;17.10;;
22131;SDS011;11232;51.748;19.390;2023-03-23T00:55:40;32.53;;;17.43;;
22131;SDS011;11232;51.748;19.390;2023-03-23T00:58:07;31.83;;;17.33;;
22131;SDS011;11232;51.748;19.390;2023-03-23T01:00:33;33.03;;;17.10;;
22131;SDS011;11232;51.748;19.390;2023-03-23T01:02:58;35.60;;;18.17;;
22131;SDS011;11232;51.748;19.390;2023-03-23T01:05:24;32.50;;;17.07;;
22131;SDS011;11232;51.748;19.390;2023-03-23T01:07:59;39.37;;;17.83;;
22131;SDS011;11232;51.748;19.390;2023-03-23T01:10:27;35.10;;;17.77;;
22131;SDS011;11232;51.748;19.390;2023-03-23T01:12:53;32.20;;;17.30;;
22131;SDS011;11232;51.748;19.390;2023-03-23T01:15:19;30.40;;;16.87;;
22131;SDS011;11232;51.748;19.390;2023-03-23T01:17:45;31.53;;;16.80;;
22131;SDS011;11232;51.748;19.390;2023-03-23T01:20:14;36.00;;;17.20;;
22131;SDS011;11232;51.748;19.390;2023-03-23T01:22:41;29.83;;;16.10;;
22131;SDS011;11232;51.748;19.390;2023-03-23T01:25:08;31.47;;;16.53;;
22131;SDS011;11232;51.748;19.390;2023-03-23T01:27:35;28.07;;;15.67;;
22131;SDS011;11232;51.748;19.390;2023-03-23T01:30:01;30.33;;;16.37;;
22131;SDS011;11232;51.748;19.390;2023-03-23T01:32:27;32.27;;;17.37;;
22131;SDS011;11232;51.748;19.390;2023-03-23T01:34:53;31.03;;;16.40;;
22131;SDS011;11232;51.748;19.390;2023-03-23T01:37:19;31.33;;;15.97;;
22131;SDS011;11232;51.748;19.390;2023-03-23T01:39:45;29.00;;;16.27;;
22131;SDS011;11232;51.748;19.390;2023-03-23T01:42:11;31.63;;;16.70;;
22131;SDS011;11232;51.748;19.390;2023-03-23T01:47:02;32.37;;;16.33;;
22131;SDS011;11232;51.748;19.390;2023-03-23T01:49:32;34.10;;;16.50;;
22131;SDS011;11232;51.748;19.390;2023-03-23T01:52:01;29.13;;;15.37;;
22131;SDS011;11232;51.748;19.390;2023-03-23T01:54:30;30.20;;;16.57;;
22131;SDS011;11232;51.748;19.390;2023-03-23T01:56:57;29.93;;;17.10;;
22131;SDS011;11232;51.748;19.390;2023-03-23T01:59:26;30.53;;;15.97;;
22131;SDS011;11232;51.748;19.390;2023-03-23T02:01:53;27.67;;;15.27;;
22131;SDS011;11232;51.748;19.390;2023-03-23T02:04:20;28.97;;;15.27;;
22131;SDS011;11232;51.748;19.390;2023-03-23T02:06:48;28.77;;;14.83;;
22131;SDS011;11232;51.748;19.390;2023-03-23T02:09:15;26.53;;;15.23;;
22131;SDS011;11232;51.748;19.390;2023-03-23T02:11:44;33.97;;;15.10;;
22131;SDS011;11232;51.748;19.390;2023-03-23T02:14:11;27.80;;;14.67;;
22131;SDS011;11232;51.748;19.390;2023-03-23T02:39:04;26.60;;;14.70;;
22131;SDS011;11232;51.748;19.390;2023-03-23T02:41:40;30.43;;;14.27;;
22131;SDS011;11232;51.748;19.390;2023-03-23T02:44:16;26.40;;;13.80;;
22131;SDS011;11232;51.748;19.390;2023-03-23T02:46:42;29.47;;;15.73;;
22131;SDS011;11232;51.748;19.390;2023-03-23T02:49:09;27.03;;;14.67;;
22131;SDS011;11232;51.748;19.390;2023-03-23T02:51:39;27.30;;;14.70;;
22131;SDS011;11232;51.748;19.390;2023-03-23T02:54:05;25.00;;;13.43;;
22131;SDS011;11232;51.748;19.390;2023-03-23T02:56:32;27.30;;;14.00;;
22131;SDS011;11232;51.748;19.390;2023-03-23T02:58:59;27.40;;;14.60;;
22131;SDS011;11232;51.748;19.390;2023-03-23T03:03:51;28.90;;;14.43;;
22131;SDS011;11232;51.748;19.390;2023-03-23T03:06:26;26.87;;;13.10;;
22131;SDS011;11232;51.748;19.390;2023-03-23T03:09:02;27.83;;;13.83;;
22131;SDS011;11232;51.748;19.390;2023-03-23T03:11:37;24.53;;;13.00;;
22131;SDS011;11232;51.748;19.390;2023-03-23T03:14:13;26.17;;;14.10;;
22131;SDS011;11232;51.748;19.390;2023-03-23T03:16:49;25.63;;;13.10;;
22131;SDS011;11232;51.748;19.390;2023-03-23T03:19:26;26.10;;;13.13;;
22131;SDS011;11232;51.748;19.390;2023-03-23T03:22:19;24.03;;;12.87;;
22131;SDS011;11232;51.748;19.390;2023-03-23T03:24:46;22.63;;;12.83;;
22131;SDS011;11232;51.748;19.390;2023-03-23T03:27:15;23.60;;;13.03;;
22131;SDS011;11232;51.748;19.390;2023-03-23T03:29:45;23.33;;;12.90;;
22131;SDS011;11232;51.748;19.390;2023-03-23T03:32:16;25.30;;;12.13;;
22131;SDS011;11232;51.748;19.390;2023-03-23T03:34:45;21.90;;;12.10;;
22131;SDS011;11232;51.748;19.390;2023-03-23T03:37:12;23.90;;;12.77;;
22131;SDS011;11232;51.748;19.390;2023-03-23T03:39:39;25.37;;;12.63;;
22131;SDS011;11232;51.748;19.390;2023-03-23T03:42:05;21.57;;;11.90;;
22131;SDS011;11232;51.748;19.390;2023-03-23T03:44:33;23.63;;;12.00;;
22131;SDS011;11232;51.748;19.390;2023-03-23T03:46:58;27.03;;;12.20;;
22131;SDS011;11232;51.748;19.390;2023-03-23T03:49:24;24.20;;;12.47;;
22131;SDS011;11232;51.748;19.390;2023-03-23T03:51:51;22.37;;;12.50;;
22131;SDS011;11232;51.748;19.390;2023-03-23T03:54:17;23.57;;;12.23;;
22131;SDS011;11232;51.748;19.390;2023-03-23T03:56:42;19.80;;;11.67;;
22131;SDS011;11232;51.748;19.390;2023-03-23T03:59:09;21.60;;;12.60;;
22131;SDS011;11232;51.748;19.390;2023-03-23T04:01:36;25.40;;;12.50;;
22131;SDS011;11232;51.748;19.390;2023-03-23T04:04:02;25.13;;;11.87;;
22131;SDS011;11232;51.748;19.390;2023-03-23T04:06:30;21.13;;;12.20;;
22131;SDS011;11232;51.748;19.390;2023-03-23T04:08:57;20.93;;;12.00;;
22131;SDS011;11232;51.748;19.390;2023-03-23T04:11:24;20.10;;;11.40;;
22131;SDS011;11232;51.748;19.390;2023-03-23T04:13:50;23.27;;;12.13;;
22131;SDS011;11232;51.748;19.390;2023-03-23T04:16:16;20.57;;;11.80;;
22131;SDS011;11232;51.748;19.390;2023-03-23T04:18:42;23.53;;;11.63;;
22131;SDS011;11232;51.748;19.390;2023-03-23T04:21:07;26.50;;;12.47;;
22131;SDS011;11232;51.748;19.390;2023-03-23T04:23:34;21.03;;;11.37;;
22131;SDS011;11232;51.748;19.390;2023-03-23T04:26:00;22.03;;;11.90;;
22131;SDS011;11232;51.748;19.390;2023-03-23T04:28:28;22.70;;;11.47;;
22131;SDS011;11232;51.748;19.390;2023-03-23T04:30:54;23.23;;;11.53;;
22131;SDS011;11232;51.748;19.390;2023-03-23T04:33:21;21.10;;;12.07;;
22131;SDS011;11232;51.748;19.390;2023-03-23T04:35:50;20.90;;;11.90;;
22131;SDS011;11232;51.748;19.390;2023-03-23T04:38:17;21.30;;;11.30;;
22131;SDS011;11232;51.748;19.390;2023-03-23T04:40:47;21.63;;;10.57;;
22131;SDS011;11232;51.748;19.390;2023-03-23T04:43:16;22.83;;;11.57;;
22131;SDS011;11232;51.748;19.390;2023-03-23T04:45:46;20.50;;;10.47;;
22131;SDS011;11232;51.748;19.390;2023-03-23T04:48:12;18.20;;;10.63;;
22131;SDS011;11232;51.748;19.390;2023-03-23T04:50:38;26.03;;;10.80;;
22131;SDS011;11232;51.748;19.390;2023-03-23T04:53:04;22.87;;;11.90;;
22131;SDS011;11232;51.748;19.390;2023-03-23T04:55:31;23.93;;;13.47;;
22131;SDS011;11232;51.748;19.390;2023-03-23T04:58:00;24.70;;;13.67;;
22131;SDS011;11232;51.748;19.390;2023-03-23T05:00:30;23.33;;;14.10;;
22131;SDS011;11232;51.748;19.390;2023-03-23T05:02:57;24.10;;;13.83;;
22131;SDS011;11232;51.748;19.390;2023-03-23T05:05:23;19.50;;;12.90;;
22131;SDS011;11232;51.748;19.390;2023-03-23T05:07:50;21.27;;;12.23;;
22131;SDS011;11232;51.748;19.390;2023-03-23T05:10:18;22.57;;;11.87;;
22131;SDS011;11232;51.748;19.390;2023-03-23T05:12:44;16.57;;;10.67;;
22131;SDS011;11232;51.748;19.390;2023-03-23T05:15:11;16.27;;;10.30;;
22131;SDS011;11232;51.748;19.390;2023-03-23T05:17:38;17.93;;;10.07;;
22131;SDS011;11232;51.748;19.390;2023-03-23T05:20:05;15.60;;;10.33;;
22131;SDS011;11232;51.748;19.390;2023-03-23T05:22:35;16.40;;;10.43;;
22131;SDS011;11232;51.748;19.390;2023-03-23T05:25:01;20.10;;;10.60;;
22131;SDS011;11232;51.748;19.390;2023-03-23T05:27:28;18.57;;;9.43;;
22131;SDS011;11232;51.748;19.390;2023-03-23T05:29:55;21.40;;;9.67;;
22131;SDS011;11232;51.748;19.390;2023-03-23T05:32:23;16.97;;;9.17;;
22131;SDS011;11232;51.748;19.390;2023-03-23T05:34:54;17.27;;;9.57;;
22131;SDS011;11232;51.748;19.390;2023-03-23T05:37:21;16.37;;;9.03;;
22131;SDS011;11232;51.748;19.390;2023-03-23T05:39:47;14.30;;;8.90;;
22131;SDS011;11232;51.748;19.390;2023-03-23T05:42:13;14.00;;;9.07;;
22131;SDS011;11232;51.748;19.390;2023-03-23T05:44:38;15.30;;;8.97;;
22131;SDS011;11232;51.748;19.390;2023-03-23T05:47:04;17.13;;;9.13;;
22131;SDS011;11232;51.748;19.390;2023-03-23T05:49:29;22.07;;;10.03;;
22131;SDS011;11232;51.748;19.390;2023-03-23T05:51:55;16.00;;;9.97;;
22131;SDS011;11232;51.748;19.390;2023-03-23T05:54:21;15.90;;;9.77;;
22131;SDS011;11232;51.748;19.390;2023-03-23T05:56:47;19.53;;;11.23;;
22131;SDS011;11232;51.748;19.390;2023-03-23T05:59:14;19.53;;;10.17;;
22131;SDS011;11232;51.748;19.390;2023-03-23T06:01:39;20.27;;;10.83;;
22131;SDS011;11232;51.748;19.390;2023-03-23T06:04:05;20.23;;;10.63;;
22131;SDS011;11232;51.748;19.390;2023-03-23T06:06:31;21.80;;;10.93;;
22131;SDS011;11232;51.748;19.390;2023-03-23T06:08:57;19.13;;;10.83;;
22131;SDS011;11232;51.748;19.390;2023-03-23T06:11:24;18.40;;;10.83;;
22131;SDS011;11232;51.748;19.390;2023-03-23T06:13:50;19.83;;;10.67;;
22131;SDS011;11232;51.748;19.390;2023-03-23T06:16:17;16.47;;;10.83;;
22131;SDS011;11232;51.748;19.390;2023-03-23T06:18:43;17.60;;;10.57;;
22131;SDS011;11232;51.748;19.390;2023-03-23T06:21:10;20.27;;;10.40;;
22131;SDS011;11232;51.748;19.390;2023-03-23T06:23:36;17.70;;;10.83;;
22131;SDS011;11232;51.748;19.390;2023-03-23T06:26:04;18.13;;;11.33;;
22131;SDS011;11232;51.748;19.390;2023-03-23T06:28:31;21.10;;;11.23;;
22131;SDS011;11232;51.748;19.390;2023-03-23T06:31:01;21.40;;;11.17;;
22131;SDS011;11232;51.748;19.390;2023-03-23T06:33:31;21.47;;;11.70;;
22131;SDS011;11232;51.748;19.390;2023-03-23T06:35:57;18.97;;;11.60;;
22131;SDS011;11232;51.748;19.390;2023-03-23T06:38:23;18.87;;;11.33;;
22131;SDS011;11232;51.748;19.390;2023-03-23T06:40:51;21.83;;;12.23;;
22131;SDS011;11232;51.748;19.390;2023-03-23T06:43:18;21.93;;;11.87;;
22131;SDS011;11232;51.748;19.390;2023-03-23T06:45:43;20.47;;;10.97;;
22131;SDS011;11232;51.748;19.390;2023-03-23T06:48:09;18.03;;;11.13;;
22131;SDS011;11232;51.748;19.390;2023-03-23T06:50:35;19.00;;;11.70;;
22131;SDS011;11232;51.748;19.390;2023-03-23T06:53:01;16.07;;;10.60;;
22131;SDS011;11232;51.748;19.390;2023-03-23T06:55:26;19.90;;;11.30;;
22131;SDS011;11232;51.748;19.390;2023-03-23T06:57:52;21.10;;;11.23;;
22131;SDS011;11232;51.748;19.390;2023-03-23T07:00:18;19.00;;;10.53;;
22131;SDS011;11232;51.748;19.390;2023-03-23T07:02:43;19.83;;;11.17;;
22131;SDS011;11232;51.748;19.390;2023-03-23T07:05:10;23.07;;;11.30;;
22131;SDS011;11232;51.748;19.390;2023-03-23T07:07:37;15.60;;;10.23;;
22131;SDS011;11232;51.748;19.390;2023-03-23T07:10:04;18.67;;;10.07;;
22131;SDS011;11232;51.748;19.390;2023-03-23T07:12:32;16.73;;;10.20;;
22131;SDS011;11232;51.748;19.390;2023-03-23T07:14:58;14.83;;;9.70;;
22131;SDS011;11232;51.748;19.390;2023-03-23T07:17:24;16.90;;;10.13;;
22131;SDS011;11232;51.748;19.390;2023-03-23T07:19:49;16.07;;;9.70;;
22131;SDS011;11232;51.748;19.390;2023-03-23T07:22:15;16.03;;;9.70;;
22131;SDS011;11232;51.748;19.390;2023-03-23T07:24:41;16.70;;;9.70;;
22131;SDS011;11232;51.748;19.390;2023-03-23T07:27:07;22.57;;;9.30;;
22131;SDS011;11232;51.748;19.390;2023-03-23T07:29:34;16.63;;;8.80;;
22131;SDS011;11232;51.748;19.390;2023-03-23T07:32:00;14.27;;;9.13;;
22131;SDS011;11232;51.748;19.390;2023-03-23T07:34:27;12.13;;;8.27;;
22131;SDS011;11232;51.748;19.390;2023-03-23T07:36:52;13.23;;;8.33;;
22131;SDS011;11232;51.748;19.390;2023-03-23T07:39:18;13.37;;;8.07;;
22131;SDS011;11232;51.748;19.390;2023-03-23T07:41:44;15.47;;;8.60;;
22131;SDS011;11232;51.748;19.390;2023-03-23T07:44:09;13.82;;;8.25;;
22131;SDS011;11232;51.748;19.390;2023-03-23T07:46:35;14.13;;;8.03;;
22131;SDS011;11232;51.748;19.390;2023-03-23T07:49:01;15.10;;;8.10;;
22131;SDS011;11232;51.748;19.390;2023-03-23T07:51:30;14.13;;;7.93;;
22131;SDS011;11232;51.748;19.390;2023-03-23T07:53:56;13.20;;;7.60;;
22131;SDS011;11232;51.748;19.390;2023-03-23T07:56:22;14.70;;;7.72;;
22131;SDS011;11232;51.748;19.390;2023-03-23T07:58:47;12.77;;;7.70;;
22131;SDS011;11232;51.748;19.390;2023-03-23T08:01:13;13.47;;;7.50;;
22131;SDS011;11232;51.748;19.390;2023-03-23T08:03:39;12.82;;;7.70;;
22131;SDS011;11232;51.748;19.390;2023-03-23T08:06:05;11.60;;;7.60;;
22131;SDS011;11232;51.748;19.390;2023-03-23T08:08:31;13.50;;;7.55;;
22131;SDS011;11232;51.748;19.390;2023-03-23T08:10:57;9.70;;;7.00;;
22131;SDS011;11232;51.748;19.390;2023-03-23T08:13:24;8.65;;;6.85;;
22131;SDS011;11232;51.748;19.390;2023-03-23T08:15:49;11.40;;;7.03;;
22131;SDS011;11232;51.748;19.390;2023-03-23T08:18:16;11.70;;;7.40;;
22131;SDS011;11232;51.748;19.390;2023-03-23T08:20:42;9.75;;;6.80;;
22131;SDS011;11232;51.748;19.390;2023-03-23T08:23:09;11.65;;;6.60;;
22131;SDS011;11232;51.748;19.390;2023-03-23T08:25:35;11.25;;;7.30;;
22131;SDS011;11232;51.748;19.390;2023-03-23T08:28:01;12.77;;;6.85;;
22131;SDS011;11232;51.748;19.390;2023-03-23T08:30:27;10.20;;;6.93;;
22131;SDS011;11232;51.748;19.390;2023-03-23T08:32:55;12.07;;;7.05;;
22131;SDS011;11232;51.748;19.390;2023-03-23T08:35:22;9.15;;;6.20;;
22131;SDS011;11232;51.748;19.390;2023-03-23T08:37:48;9.98;;;6.20;;
22131;SDS011;11232;51.748;19.390;2023-03-23T08:40:18;9.93;;;6.70;;
22131;SDS011;11232;51.748;19.390;2023-03-23T08:42:45;13.25;;;6.60;;
22131;SDS011;11232;51.748;19.390;2023-03-23T08:45:13;10.65;;;6.32;;
22131;SDS011;11232;51.748;19.390;2023-03-23T08:47:41;9.07;;;6.13;;
22131;SDS011;11232;51.748;19.390;2023-03-23T08:50:10;10.88;;;6.28;;
22131;SDS011;11232;51.748;19.390;2023-03-23T08:52:37;8.98;;;5.50;;
22131;SDS011;11232;51.748;19.390;2023-03-23T08:55:04;8.05;;;4.57;;
22131;SDS011;11232;51.748;19.390;2023-03-23T08:57:30;7.15;;;4.30;;
22131;SDS011;11232;51.748;19.390;2023-03-23T08:59:56;6.07;;;3.75;;
22131;SDS011;11232;51.748;19.390;2023-03-23T09:02:34;12.27;;;4.10;;
22131;SDS011;11232;51.748;19.390;2023-03-23T09:05:00;5.72;;;3.83;;
22131;SDS011;11232;51.748;19.390;2023-03-23T09:07:26;7.00;;;3.97;;
22131;SDS011;11232;51.748;19.390;2023-03-23T09:09:52;6.57;;;4.20;;
22131;SDS011;11232;51.748;19.390;2023-03-23T09:12:18;5.00;;;3.78;;
22131;SDS011;11232;51.748;19.390;2023-03-23T09:14:43;7.63;;;3.97;;
22131;SDS011;11232;51.748;19.390;2023-03-23T09:17:09;5.93;;;3.40;;
22131;SDS011;11232;51.748;19.390;2023-03-23T09:19:36;5.82;;;3.47;;
22131;SDS011;11232;51.748;19.390;2023-03-23T09:22:01;6.68;;;3.50;;
22131;SDS011;11232;51.748;19.390;2023-03-23T09:24:28;5.47;;;3.15;;
22131;SDS011;11232;51.748;19.390;2023-03-23T09:26:54;4.97;;;3.53;;
22131;SDS011;11232;51.748;19.390;2023-03-23T09:29:19;5.35;;;2.90;;
22131;SDS011;11232;51.748;19.390;2023-03-23T09:31:46;6.88;;;3.40;;
22131;SDS011;11232;51.748;19.390;2023-03-23T09:34:12;3.97;;;2.85;;
22131;SDS011;11232;51.748;19.390;2023-03-23T09:36:40;4.93;;;3.08;;
22131;SDS011;11232;51.748;19.390;2023-03-23T09:39:06;4.10;;;2.78;;
22131;SDS011;11232;51.748;19.390;2023-03-23T09:41:49;3.97;;;2.63;;
22131;SDS011;11232;51.748;19.390;2023-03-23T09:44:24;4.70;;;3.08;;
22131;SDS011;11232;51.748;19.390;2023-03-23T09:49:52;3.22;;;2.08;;
22131;SDS011;11232;51.748;19.390;2023-03-23T09:52:22;4.90;;;3.17;;
22131;SDS011;11232;51.748;19.390;2023-03-23T09:54:53;4.20;;;2.60;;
22131;SDS011;11232;51.748;19.390;2023-03-23T10:00:12;3.85;;;2.80;;
22131;SDS011;11232;51.748;19.390;2023-03-23T10:05:34;6.97;;;3.05;;
22131;SDS011;11232;51.748;19.390;2023-03-23T10:08:05;7.28;;;2.80;;
22131;SDS011;11232;51.748;19.390;2023-03-23T10:13:09;5.57;;;3.30;;
22131;SDS011;11232;51.748;19.390;2023-03-23T10:15:42;6.03;;;3.17;;
22131;SDS011;11232;51.748;19.390;2023-03-23T10:18:12;5.32;;;2.90;;
22131;SDS011;11232;51.748;19.390;2023-03-23T10:21:17;5.97;;;3.13;;
22131;SDS011;11232;51.748;19.390;2023-03-23T10:29:50;8.52;;;3.00;;
22131;SDS011;11232;51.748;19.390;2023-03-23T10:32:50;6.82;;;3.05;;
22131;SDS011;11232;51.748;19.390;2023-03-23T10:35:36;6.57;;;3.47;;
22131;SDS011;11232;51.748;19.390;2023-03-23T10:38:35;6.32;;;3.50;;
22131;SDS011;11232;51.748;19.390;2023-03-23T10:41:11;12.65;;;4.10;;
22131;SDS011;11232;51.748;19.390;2023-03-23T10:43:51;8.63;;;4.30;;
22131;SDS011;11232;51.748;19.390;2023-03-23T10:48:58;6.82;;;3.90;;
22131;SDS011;11232;51.748;19.390;2023-03-23T10:51:34;9.60;;;3.72;;
22131;SDS011;11232;51.748;19.390;2023-03-23T10:54:03;7.32;;;4.00;;
22131;SDS011;11232;51.748;19.390;2023-03-23T10:56:37;8.32;;;4.03;;
22131;SDS011;11232;51.748;19.390;2023-03-23T10:59:11;8.18;;;4.15;;
22131;SDS011;11232;51.748;19.390;2023-03-23T11:01:42;16.08;;;4.53;;
22131;SDS011;11232;51.748;19.390;2023-03-23T11:04:11;7.18;;;3.85;;
22131;SDS011;11232;51.748;19.390;2023-03-23T11:06:38;10.27;;;3.92;;
22131;SDS011;11232;51.748;19.390;2023-03-23T11:09:12;7.03;;;4.07;;
22131;SDS011;11232;51.748;19.390;2023-03-23T11:11:41;7.25;;;4.22;;
22131;SDS011;11232;51.748;19.390;2023-03-23T11:14:16;6.68;;;3.80;;
22131;SDS011;11232;51.748;19.390;2023-03-23T11:16:54;8.02;;;3.78;;
22131;SDS011;11232;51.748;19.390;2023-03-23T11:19:33;12.27;;;4.05;;
22131;SDS011;11232;51.748;19.390;2023-03-23T11:24:32;6.93;;;4.18;;
22131;SDS011;11232;51.748;19.390;2023-03-23T11:26:59;6.30;;;4.25;;
22131;SDS011;11232;51.748;19.390;2023-03-23T11:29:28;9.95;;;4.38;;
22131;SDS011;11232;51.748;19.390;2023-03-23T11:34:32;7.80;;;4.10;;
22131;SDS011;11232;51.748;19.390;2023-03-23T11:37:02;6.10;;;4.07;;
22131;SDS011;11232;51.748;19.390;2023-03-23T11:39:52;7.85;;;3.45;;
22131;SDS011;11232;51.748;19.390;2023-03-23T11:42:22;6.55;;;3.80;;
22131;SDS011;11232;51.748;19.390;2023-03-23T11:48:22;5.68;;;3.70;;
22131;SDS011;11232;51.748;19.390;2023-03-23T11:56:13;4.13;;;3.40;;
22131;SDS011;11232;51.748;19.390;2023-03-23T11:58:40;11.20;;;3.85;;
22131;SDS011;11232;51.748;19.390;2023-03-23T12:01:10;9.88;;;3.90;;
22131;SDS011;11232;51.748;19.390;2023-03-23T12:07:05;8.38;;;4.45;;
22131;SDS011;11232;51.748;19.390;2023-03-23T12:09:52;5.22;;;3.97;;
22131;SDS011;11232;51.748;19.390;2023-03-23T12:12:32;6.97;;;3.58;;
22131;SDS011;11232;51.748;19.390;2023-03-23T12:15:16;4.25;;;3.42;;
22131;SDS011;11232;51.748;19.390;2023-03-23T12:20:37;6.85;;;3.65;;
22131;SDS011;11232;51.748;19.390;2023-03-23T12:23:21;6.32;;;3.50;;
22131;SDS011;11232;51.748;19.390;2023-03-23T12:26:13;6.45;;;3.50;;
22131;SDS011;11232;51.748;19.390;2023-03-23T12:31:33;8.93;;;3.80;;
22131;SDS011;11232;51.748;19.390;2023-03-23T12:35:09;7.22;;;3.60;;
22131;SDS011;11232;51.748;19.390;2023-03-23T12:48:22;6.65;;;3.88;;
22131;SDS011;11232;51.748;19.390;2023-03-23T12:53:29;8.00;;;3.80;;
22131;SDS011;11232;51.748;19.390;2023-03-23T12:58:47;5.28;;;3.67;;
22131;SDS011;11232;51.748;19.390;2023-03-23T13:01:19;5.25;;;3.60;;
22131;SDS011;11232;51.748;19.390;2023-03-23T13:03:51;8.23;;;3.97;;
22131;SDS011;11232;51.748;19.390;2023-03-23T13:06:29;6.20;;;3.38;;
22131;SDS011;11232;51.748;19.390;2023-03-23T13:11:48;5.82;;;3.67;;
22131;SDS011;11232;51.748;19.390;2023-03-23T13:22:50;7.07;;;2.78;;
22131;SDS011;11232;51.748;19.390;2023-03-23T13:25:31;2.55;;;2.30;;
22131;SDS011;11232;51.748;19.390;2023-03-23T13:28:18;5.72;;;2.67;;
22131;SDS011;11232;51.748;19.390;2023-03-23T13:33:33;8.00;;;2.50;;
22131;SDS011;11232;51.748;19.390;2023-03-23T13:36:05;6.75;;;2.85;;
22131;SDS011;11232;51.748;19.390;2023-03-23T13:38:35;5.03;;;2.45;;
22131;SDS011;11232;51.748;19.390;2023-03-23T13:41:12;9.77;;;3.13;;
22131;SDS011;11232;51.748;19.390;2023-03-23T13:43:40;3.70;;;2.28;;
22131;SDS011;11232;51.748;19.390;2023-03-23T13:46:09;4.63;;;1.98;;
22131;SDS011;11232;51.748;19.390;2023-03-23T13:48:48;3.53;;;2.00;;
22131;SDS011;11232;51.748;19.390;2023-03-23T13:59:33;3.92;;;2.40;;
22131;SDS011;11232;51.748;19.390;2023-03-23T14:02:27;4.72;;;2.53;;
22131;SDS011;11232;51.748;19.390;2023-03-23T14:05:10;4.18;;;2.95;;
22131;SDS011;11232;51.748;19.390;2023-03-23T14:07:58;8.35;;;2.92;;
22131;SDS011;11232;51.748;19.390;2023-03-23T14:10:35;4.32;;;3.00;;
22131;SDS011;11232;51.748;19.390;2023-03-23T14:13:03;3.80;;;3.15;;
22131;SDS011;11232;51.748;19.390;2023-03-23T14:15:31;4.25;;;2.70;;
22131;SDS011;11232;51.748;19.390;2023-03-23T14:18:11;4.85;;;2.78;;
22131;SDS011;11232;51.748;19.390;2023-03-23T14:20:40;3.63;;;2.45;;
22131;SDS011;11232;51.748;19.390;2023-03-23T14:23:14;9.68;;;2.70;;
22131;SDS011;11232;51.748;19.390;2023-03-23T14:25:41;6.10;;;2.75;;
22131;SDS011;11232;51.748;19.390;2023-03-23T14:28:19;4.47;;;2.33;;
22131;SDS011;11232;51.748;19.390;2023-03-23T14:30:46;3.58;;;2.60;;
22131;SDS011;11232;51.748;19.390;2023-03-23T14:33:13;3.35;;;2.70;;
22131;SDS011;11232;51.748;19.390;2023-03-23T14:35:40;4.68;;;2.40;;
22131;SDS011;11232;51.748;19.390;2023-03-23T14:38:11;3.65;;;2.45;;
22131;SDS011;11232;51.748;19.390;2023-03-23T14:40:39;3.75;;;2.42;;
22131;SDS011;11232;51.748;19.390;2023-03-23T14:43:05;7.43;;;2.63;;
22131;SDS011;11232;51.748;19.390;2023-03-23T14:45:32;4.35;;;2.35;;
22131;SDS011;11232;51.748;19.390;2023-03-23T14:48:00;4.82;;;2.40;;
22131;SDS011;11232;51.748;19.390;2023-03-23T14:53:03;3.90;;;2.15;;
22131;SDS011;11232;51.748;19.390;2023-03-23T14:55:33;3.95;;;2.05;;
22131;SDS011;11232;51.748;19.390;2023-03-23T14:58:11;8.70;;;2.45;;
22131;SDS011;11232;51.748;19.390;2023-03-23T15:00:39;7.32;;;2.90;;
22131;SDS011;11232;51.748;19.390;2023-03-23T15:03:07;4.18;;;2.53;;
22131;SDS011;11232;51.748;19.390;2023-03-23T15:05:37;3.22;;;2.17;;
22131;SDS011;11232;51.748;19.390;2023-03-23T15:08:06;3.42;;;2.47;;
22131;SDS011;11232;51.748;19.390;2023-03-23T15:10:33;9.02;;;2.70;;
22131;SDS011;11232;51.748;19.390;2023-03-23T15:12:59;7.20;;;2.72;;
22131;SDS011;11232;51.748;19.390;2023-03-23T15:15:29;6.40;;;2.65;;
22131;SDS011;11232;51.748;19.390;2023-03-23T15:17:56;7.38;;;3.50;;
22131;SDS011;11232;51.748;19.390;2023-03-23T15:20:24;4.65;;;3.00;;
22131;SDS011;11232;51.748;19.390;2023-03-23T15:22:50;5.35;;;2.70;;
22131;SDS011;11232;51.748;19.390;2023-03-23T15:27:44;5.55;;;2.30;;
22131;SDS011;11232;51.748;19.390;2023-03-23T15:32:40;6.95;;;2.97;;
22131;SDS011;11232;51.748;19.390;2023-03-23T15:35:13;9.43;;;3.00;;
22131;SDS011;11232;51.748;19.390;2023-03-23T15:37:42;5.45;;;2.92;;
22131;SDS011;11232;51.748;19.390;2023-03-23T15:40:18;4.78;;;2.50;;
22131;SDS011;11232;51.748;19.390;2023-03-23T15:42:45;7.13;;;2.47;;
22131;SDS011;11232;51.748;19.390;2023-03-23T15:50:08;6.18;;;2.63;;
22131;SDS011;11232;51.748;19.390;2023-03-23T15:52:34;5.65;;;2.65;;
22131;SDS011;11232;51.748;19.390;2023-03-23T15:55:00;3.75;;;2.00;;
22131;SDS011;11232;51.748;19.390;2023-03-23T15:57:26;3.60;;;2.38;;
22131;SDS011;11232;51.748;19.390;2023-03-23T15:59:52;4.15;;;2.33;;
22131;SDS011;11232;51.748;19.390;2023-03-23T16:02:20;3.05;;;2.10;;
22131;SDS011;11232;51.748;19.390;2023-03-23T16:04:46;4.45;;;2.22;;
22131;SDS011;11232;51.748;19.390;2023-03-23T16:07:12;6.35;;;2.72;;
22131;SDS011;11232;51.748;19.390;2023-03-23T16:09:39;4.65;;;2.50;;
22131;SDS011;11232;51.748;19.390;2023-03-23T16:12:09;8.65;;;2.88;;
22131;SDS011;11232;51.748;19.390;2023-03-23T16:14:37;5.85;;;3.17;;
22131;SDS011;11232;51.748;19.390;2023-03-23T16:17:03;9.07;;;4.75;;
22131;SDS011;11232;51.748;19.390;2023-03-23T16:19:29;8.73;;;4.95;;
22131;SDS011;11232;51.748;19.390;2023-03-23T16:21:55;7.10;;;3.83;;
22131;SDS011;11232;51.748;19.390;2023-03-23T16:24:21;6.78;;;3.97;;
22131;SDS011;11232;51.748;19.390;2023-03-23T16:26:47;5.93;;;3.83;;
22131;SDS011;11232;51.748;19.390;2023-03-23T16:29:14;5.63;;;3.78;;
22131;SDS011;11232;51.748;19.390;2023-03-23T16:31:40;6.50;;;3.83;;
22131;SDS011;11232;51.748;19.390;2023-03-23T16:34:07;5.50;;;3.83;;